Time;durP1;ratioP1;P1;durP2;ratioP2;P2;SDS_P1;SDS_P2;PMS_P1;PMS_P2;Temp;Humidity;BMP_temperature;BMP_pressure;BME280_temperature;BME280_humidity;BME280_pressure;Samples;Min_cycle;Max_cycle;Signal;HPM_P1;HPM_P2
2022/08/11 06:51:29;;;;;;;8.15;2.88;;;;;;;20.00;46.71;97008.47;2076484;28;20229;-62
2022/08/11 06:52:35;;;;;;;8.63;2.85;;;;;;;20.22;46.39;97017.41;2074357;28;20197;-62
2022/08/11 06:53:44;;;;;;;4.97;2.17;;;;;;;20.30;46.39;97009.69;2077132;28;20197;-62
2022/08/11 07:29:16;;;;;;;11.05;3.10;;;;;;;21.11;43.97;97011.28;2079110;28;20197;-62
2022/08/11 07:30:17;;;;;;;9.40;4.05;;;;;;;21.40;43.25;97008.06;2078872;28;20216;-62
2022/08/11 07:53:02;;;;;;;43.22;4.07;;;;;;;23.62;38.55;97002.06;2087060;28;20203;-64
2022/08/11 07:54:05;;;;;;;15.38;3.15;;;;;;;22.96;40.13;96998.22;2086743;28;20583;-64
2022/08/11 07:55:21;;;;;;;20.33;3.25;;;;;;;23.15;40.14;96999.28;2103746;28;20202;-64
2022/08/11 07:56:42;;;;;;;12.27;3.17;;;;;;;22.73;40.59;96994.09;2086062;28;20217;-64
2022/08/11 08:20:35;;;;;;;10.52;2.47;;;;;;;24.23;38.55;96989.34;2087903;28;20567;-61
2022/08/11 08:21:37;;;;;;;4.35;2.45;;;;;;;24.58;38.06;96993.13;2077512;28;20217;-61
2022/08/11 08:22:40;;;;;;;9.10;2.50;;;;;;;24.99;37.23;97000.78;2075427;28;20198;-62
2022/08/11 08:23:48;;;;;;;3.78;2.30;;;;;;;25.21;37.00;97004.03;2073924;28;20653;-61
2022/08/11 08:24:56;;;;;;;9.07;2.92;;;;;;;25.12;36.81;97008.44;2073399;28;20284;-61
2022/08/11 08:26:57;;;;;;;4.90;2.67;;;;;;;24.70;36.87;97006.31;2071204;28;20221;-62
2022/08/11 08:27:27;;;;;;;13.73;2.72;;;;;;;24.50;37.60;97003.69;2066633;28;20684;-62
2022/08/11 08:28:32;;;;;;;10.05;2.80;;;;;;;24.85;37.38;97002.16;2063386;28;20198;-61
2022/08/11 08:30:57;;;;;;;19.98;2.80;;;;;;;24.57;37.41;97010.13;2069348;28;20201;-62
2022/08/11 08:32:01;;;;;;;13.23;3.05;;;;;;;24.26;37.77;97002.41;2069693;28;20277;-62
2022/08/11 08:33:03;;;;;;;12.68;3.05;;;;;;;24.57;37.56;97006.59;2064041;28;20195;-62
2022/08/11 08:53:31;;;;;;;5.55;2.10;;;;;;;25.65;34.68;97017.47;2103015;27;20583;-64
2022/08/11 08:54:36;;;;;;;13.02;2.40;;;;;;;25.27;35.12;97009.59;2100229;28;20517;-65
2022/08/11 08:55:39;;;;;;;3.38;1.95;;;;;;;25.74;34.70;97008.53;2100291;28;20588;-64
2022/08/11 08:56:51;;;;;;;20.17;3.15;;;;;;;25.20;35.28;97015.69;2084696;28;20243;-64
2022/08/11 08:57:54;;;;;;;14.05;2.95;;;;;;;25.23;35.42;97000.19;2082837;28;20201;-64
2022/08/11 08:58:59;;;;;;;18.27;3.20;;;;;;;25.48;35.16;97005.78;2082911;28;20193;-64
2022/08/11 09:00:03;;;;;;;17.08;2.75;;;;;;;25.01;36.33;97011.31;2084078;28;20200;-64
2022/08/11 09:01:08;;;;;;;39.40;5.78;;;;;;;24.70;36.07;96998.31;2085633;28;20192;-64
2022/08/11 09:02:12;;;;;;;37.65;3.22;;;;;;;24.93;36.31;97006.72;2085903;28;20204;-64
2022/08/11 09:03:14;;;;;;;40.38;3.83;;;;;;;25.10;35.80;97013.06;2085121;28;20195;-65
2022/08/11 09:04:36;;;;;;;21.27;3.67;;;;;;;25.33;35.51;96997.47;2085745;28;20204;-63
2022/08/11 09:05:39;;;;;;;25.40;3.25;;;;;;;24.86;36.06;97003.84;2084460;28;20204;-64
2022/08/11 09:06:44;;;;;;;15.48;2.83;;;;;;;25.67;35.29;96998.59;2085655;28;20228;-64
2022/08/11 09:07:53;;;;;;;9.90;2.75;;;;;;;26.44;34.37;97006.81;2086203;28;20200;-64
2022/08/11 09:27:38;;;;;;;25.70;3.20;;;;;;;25.34;34.47;96993.78;2102060;27;20556;-61
2022/08/11 09:28:51;;;;;;;18.98;2.88;;;;;;;25.67;34.21;96994.09;2097237;28;20186;-61
2022/08/11 09:29:53;;;;;;;35.03;3.65;;;;;;;25.41;34.39;97002.91;2098797;28;20211;-62
2022/08/11 09:30:59;;;;;;;25.98;3.42;;;;;;;26.18;33.66;97005.03;2097053;28;20206;-61
2022/08/11 09:32:01;;;;;;;39.80;3.70;;;;;;;26.78;32.63;96994.44;2082033;28;20192;-61
2022/08/11 09:33:04;;;;;;;27.92;2.70;;;;;;;27.26;31.58;97000.94;2082435;28;20197;-62
2022/08/11 09:34:09;;;;;;;21.38;2.80;;;;;;;27.42;31.71;96999.31;2082160;28;20670;-61
2022/08/11 09:35:11;;;;;;;13.88;2.60;;;;;;;27.61;31.52;96996.28;2081729;28;20655;-62
2022/08/11 09:40:27;;;;;;;7.43;2.75;;;;;;;25.81;33.55;96999.88;2075042;28;20205;-62
2022/08/11 09:41:31;;;;;;;4.47;2.17;;;;;;;25.60;33.06;96993.03;2075901;28;20252;-61
2022/08/11 09:45:36;;;;;;;16.95;3.00;;;;;;;26.00;33.61;97005.00;2071805;28;20224;-62
2022/08/11 09:46:41;;;;;;;7.50;2.25;;;;;;;25.60;33.35;97003.75;2071382;28;20229;-62
2022/08/11 09:47:43;;;;;;;5.60;1.98;;;;;;;25.51;33.57;96997.47;2073033;28;20205;-62
2022/08/11 09:48:46;;;;;;;9.25;2.05;;;;;;;26.34;32.97;97000.75;2076875;28;20203;-62
2022/08/11 10:09:19;;;;;;;4.22;2.40;;;;;;;28.95;28.12;96982.38;2084397;28;20559;-62
2022/08/11 10:10:23;;;;;;;7.65;2.13;;;;;;;28.01;28.88;96991.03;2078844;28;20255;-61
2022/08/11 10:11:26;;;;;;;16.83;2.78;;;;;;;28.36;28.18;96983.63;2073439;28;20244;-62
2022/08/11 10:12:32;;;;;;;17.08;2.45;;;;;;;29.04;27.32;96989.41;2071139;28;20197;-62
2022/08/11 10:15:32;;;;;;;16.42;2.25;;;;;;;28.41;28.10;96997.34;2070654;28;20201;-62
2022/08/11 10:15:33;;;;;;;12.23;2.40;;;;;;;27.13;29.62;97001.38;2070045;28;20603;-62
2022/08/11 10:16:40;;;;;;;36.58;3.53;;;;;;;26.24;30.30;96992.81;2070166;28;20648;-64
2022/08/11 10:18:41;;;;;;;15.30;1.90;;;;;;;26.12;30.79;96992.28;2070787;28;20285;-63
2022/08/11 10:19:09;;;;;;;11.63;2.60;;;;;;;25.87;31.23;96996.59;2070723;28;20205;-63
2022/08/11 10:20:10;;;;;;;16.67;2.15;;;;;;;26.46;30.14;96991.44;2070619;28;20216;-64
2022/08/11 10:21:22;;;;;;;8.07;2.03;;;;;;;27.73;29.17;97002.16;2070402;28;20221;-63
2022/08/11 10:28:08;;;;;;;7.72;1.95;;;;;;;27.52;28.96;96986.56;2073934;28;20202;-63
2022/08/11 10:34:10;;;;;;;6.32;1.73;;;;;;;29.75;25.97;96967.72;2061142;28;20213;-62
2022/08/11 10:35:17;;;;;;;4.20;1.40;;;;;;;30.10;25.97;96969.94;2057703;28;20573;-63
2022/08/11 10:36:19;;;;;;;2.70;1.42;;;;;;;30.46;25.80;96975.41;2059786;28;20233;-63
2022/08/11 10:37:23;;;;;;;8.32;2.13;;;;;;;29.50;25.90;96969.78;2057584;28;20206;-64
2022/08/11 10:38:51;;;;;;;16.58;2.60;;;;;;;28.69;26.94;96969.25;2060508;28;20233;-64
2022/08/11 10:39:55;;;;;;;24.30;2.40;;;;;;;29.00;26.63;96977.31;2070103;28;20201;-64
2022/08/11 10:43:58;;;;;;;20.65;2.30;;;;;;;26.87;28.69;96972.88;2075553;28;20204;-64
2022/08/11 10:47:46;;;;;;;5.85;1.67;;;;;;;27.36;28.88;96957.88;2072886;28;20660;-63
2022/08/11 10:48:50;;;;;;;10.85;1.90;;;;;;;28.51;27.51;96975.69;2072438;28;20209;-63
2022/08/11 10:51:13;;;;;;;8.45;1.90;;;;;;;28.23;26.53;96969.91;2072762;28;20248;-64
2022/08/11 11:19:07;;;;;;;3.40;1.77;;;;;;;29.52;25.67;96948.91;2094067;27;20560;-64
2022/08/11 11:20:12;;;;;;;16.05;2.50;;;;;;;29.15;25.42;96948.66;2087653;28;20203;-65
2022/08/11 11:21:36;;;;;;;27.85;3.15;;;;;;;28.86;26.72;96949.34;2075191;28;20221;-62
2022/08/11 11:22:40;;;;;;;28.08;2.85;;;;;;;29.06;25.90;96949.72;2071274;28;20209;-63
2022/08/11 11:23:53;;;;;;;21.23;2.80;;;;;;;28.86;26.35;96951.19;2071012;28;20256;-62
2022/08/11 11:25:06;;;;;;;20.17;2.40;;;;;;;29.15;24.84;96948.66;2071354;28;20204;-63
2022/08/11 11:26:30;;;;;;;12.60;1.70;;;;;;;28.01;26.37;96940.91;2070446;28;20193;-63
2022/08/11 11:27:55;;;;;;;12.35;2.28;;;;;;;28.14;26.36;96939.56;2070325;28;20600;-63
2022/08/11 11:29:19;;;;;;;9.73;2.03;;;;;;;27.16;27.35;96935.91;2071004;28;20194;-63
2022/08/11 11:30:25;;;;;;;2.85;1.67;;;;;;;27.28;27.13;96931.91;2070604;28;20204;-65
2022/08/11 11:31:57;;;;;;;11.48;2.15;;;;;;;26.91;28.33;96932.38;2069851;28;20222;-64
2022/08/11 11:33:22;;;;;;;3.67;1.40;;;;;;;27.09;28.27;96924.19;2070077;28;20220;-63
2022/08/11 11:34:59;;;;;;;3.78;1.50;;;;;;;27.30;27.98;96927.22;2070300;28;20197;-64
2022/08/11 11:36:07;;;;;;;10.52;2.00;;;;;;;27.74;27.72;96931.41;2069754;28;20189;-65
2022/08/11 11:37:14;;;;;;;13.48;1.90;;;;;;;28.04;27.75;96926.34;2071241;28;20193;-63
2022/08/11 11:38:17;;;;;;;25.50;2.63;;;;;;;28.69;27.01;96926.28;2071040;28;20220;-64
2022/08/11 11:39:22;;;;;;;12.88;1.95;;;;;;;28.63;26.18;96922.41;2071173;28;20193;-62
2022/08/11 11:40:24;;;;;;;7.90;2.17;;;;;;;29.07;26.06;96915.63;2071092;28;20205;-62
2022/08/11 11:41:32;;;;;;;4.80;1.52;;;;;;;30.35;24.84;96926.56;2069898;28;20715;-62
2022/08/11 11:42:33;;;;;;;3.45;1.98;;;;;;;31.04;24.66;96914.56;2071136;28;20527;-62
2022/08/11 11:43:36;;;;;;;5.93;1.70;;;;;;;31.59;23.98;96920.25;2071016;28;20200;-61
2022/08/11 11:44:38;;;;;;;5.03;1.65;;;;;;;32.07;23.57;96922.28;2071101;28;20201;-62
2022/08/11 11:45:40;;;;;;;10.90;1.65;;;;;;;31.98;23.39;96927.00;2070900;28;20210;-62
2022/08/11 11:46:44;;;;;;;6.43;1.90;;;;;;;32.41;23.44;96928.72;2070582;28;20230;-62
2022/08/11 11:47:51;;;;;;;13.27;2.20;;;;;;;31.95;23.57;96918.47;2070790;28;20536;-63
2022/08/11 11:48:55;;;;;;;12.30;2.10;;;;;;;32.28;23.06;96923.25;2069940;28;20632;-63
2022/08/11 11:49:57;;;;;;;7.23;1.57;;;;;;;32.66;22.93;96925.50;2071114;28;20423;-62
2022/08/11 11:50:59;;;;;;;5.03;1.67;;;;;;;32.96;22.73;96923.34;2070333;28;20430;-62
2022/08/11 11:52:01;;;;;;;6.70;2.00;;;;;;;33.21;22.42;96920.88;2070990;28;20420;-62
2022/08/11 11:53:05;;;;;;;6.97;2.00;;;;;;;33.43;22.14;96920.72;2071170;28;20431;-62
2022/08/11 11:54:09;;;;;;;5.50;1.67;;;;;;;32.00;22.96;96918.69;2069493;28;20427;-62
2022/08/11 11:55:15;;;;;;;5.20;1.90;;;;;;;32.09;23.06;96922.94;2071851;28;20430;-62
2022/08/11 11:56:17;;;;;;;10.20;1.70;;;;;;;30.01;24.47;96918.03;2070171;28;20524;-62
2022/08/11 12:01:34;;;;;;;6.47;2.20;;;;;;;32.45;22.88;96910.25;2070259;28;20534;-62
2022/08/11 12:02:38;;;;;;;8.30;1.90;;;;;;;32.82;22.38;96911.66;2070616;28;20431;-62
2022/08/11 12:03:40;;;;;;;2.30;1.57;;;;;;;33.27;22.01;96908.44;2070579;28;20419;-62
2022/08/11 12:04:44;;;;;;;4.93;1.77;;;;;;;33.59;21.87;96903.25;2070048;28;20899;-62
2022/08/11 12:05:46;;;;;;;8.00;1.77;;;;;;;33.57;21.84;96912.63;2071171;28;20512;-62
2022/08/11 12:06:49;;;;;;;14.97;1.90;;;;;;;32.93;22.36;96923.75;2070315;28;20451;-62
2022/08/11 12:09:17;;;;;;;13.70;2.50;;;;;;;30.97;24.26;96913.63;2070650;28;20477;-62
2022/08/11 12:10:18;;;;;;;20.33;3.13;;;;;;;29.73;25.77;96915.13;2069868;28;20933;-62
2022/08/11 12:38:23;;;;;;;21.00;3.00;;;;;;;29.25;26.25;96886.56;2125401;27;20566;-61
2022/08/11 12:45:26;;;;;;;4.45;1.48;;;;;;;32.46;23.10;96877.63;2087583;28;20286;-62
2022/08/11 12:45:42;;;;;;;4.55;2.00;;;;;;;32.00;22.76;96879.06;2087543;28;20263;-62
2022/08/11 12:46:45;;;;;;;6.53;1.50;;;;;;;31.27;23.80;96873.94;2090000;28;20246;-62
2022/08/11 12:52:24;;;;;;;4.17;1.53;;;;;;;34.35;21.19;96879.41;2091724;28;20459;-62
2022/08/11 12:53:28;;;;;;;3.93;1.40;;;;;;;34.88;20.92;96869.38;2088944;28;20459;-62
2022/08/11 12:54:53;;;;;;;10.33;1.97;;;;;;;34.41;20.63;96862.31;2093052;28;20437;-62
2022/08/11 12:58:48;;;;;;;6.37;1.70;;;;;;;30.17;24.87;96865.03;2092000;28;20426;-64
2022/08/11 13:05:17;;;;;;;20.13;2.40;;;;;;;29.99;24.58;96858.16;2092276;28;20421;-64
2022/08/11 13:06:23;;;;;;;16.60;2.23;;;;;;;30.84;23.89;96855.03;2092492;28;20931;-62
2022/08/11 13:07:29;;;;;;;5.30;1.70;;;;;;;29.54;24.91;96855.44;2089378;28;20629;-62
2022/08/11 13:08:51;;;;;;;3.63;1.50;;;;;;;29.40;24.97;96851.69;2090802;28;20453;-61
2022/08/11 13:09:56;;;;;;;19.55;2.60;;;;;;;29.48;24.82;96851.63;2087274;28;20429;-62
2022/08/11 13:13:45;;;;;;;12.95;1.73;;;;;;;30.23;24.69;96854.34;2087914;28;21053;-61
2022/08/11 13:14:59;;;;;;;10.55;1.88;;;;;;;32.19;23.50;96841.59;2088857;28;20238;-61
2022/08/11 13:16:01;;;;;;;12.57;1.83;;;;;;;31.47;23.25;96841.72;2089499;28;20195;-62
2022/08/11 13:17:23;;;;;;;5.30;1.75;;;;;;;31.46;23.37;96839.22;2088565;28;20203;-62
2022/08/11 13:18:44;;;;;;;7.67;1.93;;;;;;;31.89;23.15;96839.94;2090581;28;20198;-62
2022/08/11 13:19:46;;;;;;;6.13;1.70;;;;;;;32.43;22.38;96844.78;2091552;28;20425;-63
2022/08/11 13:20:54;;;;;;;11.13;1.87;;;;;;;31.67;23.06;96850.00;2091161;28;20431;-62
2022/08/11 13:21:56;;;;;;;32.77;2.50;;;;;;;30.37;23.59;96825.72;2090834;28;20428;-62
2022/08/11 13:22:59;;;;;;;49.60;3.90;;;;;;;31.18;23.70;96851.66;2092250;28;20928;-62
2022/08/11 13:24:01;;;;;;;14.97;2.67;;;;;;;32.55;22.32;96857.50;2087234;28;20433;-61
2022/08/11 13:25:05;;;;;;;12.70;2.67;;;;;;;33.54;21.34;96832.69;2087254;28;20425;-62
2022/08/11 13:26:08;;;;;;;4.30;1.47;;;;;;;33.94;21.19;96843.47;2090791;28;20437;-62
2022/08/11 13:27:11;;;;;;;8.90;2.30;;;;;;;33.87;21.13;96848.06;2090094;28;20428;-62
2022/08/11 13:28:13;;;;;;;6.50;1.80;;;;;;;30.55;23.45;96843.34;2091329;28;20429;-62
2022/08/11 13:29:17;;;;;;;16.57;2.10;;;;;;;31.29;23.21;96833.28;2092241;28;20900;-62
2022/08/11 13:31:48;;;;;;;4.60;2.20;;;;;;;31.36;22.34;96835.03;2090570;28;20500;-62
2022/08/11 13:32:51;;;;;;;24.50;2.67;;;;;;;31.49;22.79;96833.44;2087415;28;20429;-63
2022/08/11 13:33:53;;;;;;;27.40;3.30;;;;;;;31.59;23.29;96828.50;2087181;28;20776;-62
2022/08/11 13:34:54;;;;;;;20.10;2.00;;;;;;;30.62;23.47;96823.53;2087758;28;20948;-62
2022/08/11 13:35:56;;;;;;;8.50;1.50;;;;;;;31.56;23.03;96839.72;2092346;28;20911;-61
2022/08/11 13:37:03;;;;;;;5.73;1.33;;;;;;;31.98;22.05;96815.50;2092936;28;20444;-62
2022/08/11 13:38:05;;;;;;;3.33;1.50;;;;;;;31.87;22.56;96833.91;2091583;28;20804;-62
2022/08/11 14:03:31;;;;;;;8.60;1.80;;;;;;;32.60;21.66;96824.47;2128727;27;20604;-62
2022/08/11 14:04:58;;;;;;;9.90;1.43;;;;;;;33.00;21.31;96811.03;2106600;28;20938;-62
2022/08/11 14:06:02;;;;;;;3.37;1.50;;;;;;;33.57;20.52;96818.72;2111085;28;20414;-62
2022/08/11 14:07:07;;;;;;;3.67;1.10;;;;;;;34.35;20.14;96803.53;2107822;28;20427;-62
2022/08/11 14:08:13;;;;;;;2.90;1.27;;;;;;;34.63;19.58;96805.06;2108943;28;20522;-62
2022/08/11 14:09:39;;;;;;;5.90;1.30;;;;;;;34.53;19.64;96804.72;2116862;28;20481;-62
2022/08/11 14:10:41;;;;;;;2.27;1.50;;;;;;;31.42;22.31;96796.44;2108221;28;20476;-63
2022/08/11 14:13:39;;;;;;;6.73;1.90;;;;;;;30.19;23.75;96806.44;2118623;28;20413;-63
2022/08/11 14:14:55;;;;;;;3.83;1.30;;;;;;;30.67;22.87;96801.41;2116589;28;20442;-63
2022/08/11 14:16:03;;;;;;;3.83;1.30;;;;;;;30.37;23.07;96800.63;2114040;28;20429;-63
2022/08/11 14:17:07;;;;;;;7.50;1.60;;;;;;;30.87;22.50;96798.06;2115062;28;20423;-62
2022/08/11 14:18:24;;;;;;;2.83;1.47;;;;;;;31.48;22.34;96796.69;2115377;28;20476;-62
2022/08/11 14:19:27;;;;;;;2.80;1.70;;;;;;;31.67;21.61;96785.22;2115952;28;20425;-63
2022/08/11 14:22:05;;;;;;;3.57;1.67;;;;;;;31.12;22.55;96786.91;2116724;28;20431;-62
2022/08/11 14:22:06;;;;;;;3.53;1.67;;;;;;;31.82;21.81;96785.09;2115597;28;20439;-62
2022/08/11 14:23:13;;;;;;;4.47;1.57;;;;;;;32.53;21.15;96786.63;2107788;28;20469;-62
2022/08/11 14:24:16;;;;;;;2.40;1.40;;;;;;;33.03;21.13;96785.47;2110408;28;20601;-63
2022/08/11 14:25:18;;;;;;;11.33;1.40;;;;;;;33.29;20.69;96792.75;2116700;28;21169;-63
2022/08/11 14:26:27;;;;;;;7.33;1.43;;;;;;;33.32;20.57;96794.19;2116743;28;20806;-63
2022/08/11 14:27:30;;;;;;;6.23;1.50;;;;;;;33.67;20.38;96793.94;2116638;28;20780;-62
2022/08/11 14:29:00;;;;;;;2.63;1.30;;;;;;;34.20;19.70;96792.94;2117294;28;20453;-62
2022/08/11 14:30:04;;;;;;;3.50;1.47;;;;;;;32.31;20.96;96790.50;2115907;28;20441;-63
2022/08/11 14:31:07;;;;;;;8.80;1.40;;;;;;;31.80;21.81;96783.63;2117370;28;20479;-63
2022/08/11 14:32:10;;;;;;;3.30;1.37;;;;;;;32.12;21.09;96794.78;2117975;28;20470;-63
2022/08/11 14:33:14;;;;;;;7.07;1.30;;;;;;;31.89;21.08;96791.34;2116102;28;20419;-63
2022/08/11 14:34:23;;;;;;;6.03;1.27;;;;;;;32.66;20.80;96790.38;2115981;28;20969;-63
2022/08/11 14:35:26;;;;;;;3.13;1.47;;;;;;;33.29;20.03;96794.63;2115593;28;20419;-63
2022/08/11 14:36:38;;;;;;;2.70;1.37;;;;;;;32.31;20.87;96783.22;2115413;28;20984;-63
2022/08/11 14:37:40;;;;;;;6.20;1.60;;;;;;;33.19;20.33;96776.94;2115354;28;20430;-62
2022/08/11 14:38:42;;;;;;;9.90;1.20;;;;;;;34.35;19.75;96781.88;2116209;28;20988;-63
2022/08/11 14:39:53;;;;;;;5.00;1.80;;;;;;;34.76;19.32;96771.59;2115080;28;20567;-64
2022/08/11 14:47:06;;;;;;;2.40;1.30;;;;;;;33.11;20.23;96777.13;2117100;28;20435;-64
2022/08/11 14:48:25;;;;;;;4.07;1.23;;;;;;;33.46;20.07;96776.91;2117291;28;20510;-64
2022/08/11 14:49:28;;;;;;;9.53;1.53;;;;;;;32.70;20.31;96778.94;2115899;28;20423;-66
2022/08/11 14:50:33;;;;;;;10.60;1.30;;;;;;;34.02;19.87;96772.00;2116780;28;20419;-66
2022/08/11 14:51:35;;;;;;;3.43;1.30;;;;;;;34.02;19.13;96770.09;2116270;28;20458;-66
2022/08/11 14:52:42;;;;;;;4.47;1.43;;;;;;;34.72;19.04;96770.38;2117187;28;21072;-67
2022/08/11 14:53:44;;;;;;;7.67;1.73;;;;;;;32.65;20.28;96765.22;2114747;28;20427;-66
2022/08/11 14:56:36;;;;;;;4.77;1.23;;;;;;;34.59;18.77;96764.00;2116989;28;20446;-66
2022/08/11 14:57:40;;;;;;;3.33;1.30;;;;;;;35.21;18.29;96773.34;2117280;28;20871;-66
2022/08/11 14:58:57;;;;;;;2.80;1.30;;;;;;;33.39;19.04;96759.84;2114494;28;20434;-66
2022/08/11 15:00:02;;;;;;;2.07;1.30;;;;;;;33.70;19.38;96764.56;2115767;28;20423;-66
2022/08/11 15:03:05;;;;;;;6.37;1.20;;;;;;;33.56;19.35;96771.06;2114335;28;20426;-67
2022/08/11 15:03:49;;;;;;;1.40;1.10;;;;;;;34.99;18.22;96766.44;2117537;28;20480;-66
2022/08/11 15:05:11;;;;;;;8.27;1.50;;;;;;;35.52;18.23;96769.75;2114284;28;20418;-66
2022/08/11 15:06:13;;;;;;;8.30;1.90;;;;;;;34.93;18.45;96767.34;2115810;28;20450;-66
2022/08/11 15:07:15;;;;;;;4.57;1.70;;;;;;;34.47;18.31;96752.19;2114481;28;20426;-66
2022/08/11 15:08:19;;;;;;;2.50;1.10;;;;;;;35.11;18.41;96757.56;2116187;28;20894;-66
2022/08/11 15:09:21;;;;;;;3.87;1.33;;;;;;;35.90;18.14;96755.13;2118862;28;20896;-66
2022/08/11 15:10:23;;;;;;;2.50;1.20;;;;;;;36.11;17.72;96759.28;2114207;28;20909;-66
2022/08/11 15:12:49;;;;;;;1.60;1.30;;;;;;;34.73;18.40;96745.75;2114941;28;20427;-66
2022/08/11 15:13:51;;;;;;;4.20;1.40;;;;;;;35.08;18.36;96752.59;2114766;28;20902;-66
2022/08/11 15:17:35;;;;;;;2.23;1.10;;;;;;;34.45;18.53;96744.28;2110175;28;20464;-66
2022/08/11 15:18:44;;;;;;;3.07;1.57;;;;;;;34.76;18.69;96753.44;2110651;28;20476;-67
2022/08/11 15:25:09;;;;;;;9.10;1.40;;;;;;;32.31;20.02;96753.50;2110654;28;20754;-66
2022/08/11 15:37:24;;;;;;;3.00;1.57;;;;;;;32.14;20.57;96746.78;2109132;28;20482;-66
2022/08/11 15:37:30;;;;;;;3.77;1.20;;;;;;;29.69;22.35;96737.09;2110992;28;20890;-66
2022/08/11 15:38:35;;;;;;;2.17;1.30;;;;;;;31.10;21.87;96741.25;2109529;28;20936;-66
2022/08/11 15:46:13;;;;;;;2.53;1.20;;;;;;;32.58;20.14;96734.66;2107400;28;20438;-66
2022/08/11 15:47:17;;;;;;;2.33;1.17;;;;;;;32.64;19.98;96733.81;2100189;28;20436;-66
2022/08/11 15:48:30;;;;;;;4.30;1.57;;;;;;;33.07;19.92;96727.22;2103267;28;20826;-66
2022/08/11 15:49:38;;;;;;;2.43;1.30;;;;;;;33.15;19.67;96721.56;2108463;28;20435;-66
2022/08/11 15:51:15;;;;;;;2.47;1.30;;;;;;;30.86;22.04;96721.75;2110142;28;20506;-66
2022/08/11 15:52:30;;;;;;;2.50;1.17;;;;;;;32.26;20.93;96734.41;2108694;28;20426;-66
2022/08/11 15:53:40;;;;;;;3.67;1.43;;;;;;;32.44;20.41;96712.19;2107881;28;20806;-67
2022/08/11 15:54:45;;;;;;;2.70;1.83;;;;;;;31.95;20.92;96730.34;2107101;28;20416;-67
2022/08/11 15:55:47;;;;;;;6.73;1.30;;;;;;;32.48;20.37;96726.97;2108429;28;20432;-66
2022/08/11 15:56:52;;;;;;;2.20;1.37;;;;;;;32.86;20.51;96717.44;2109825;28;20459;-66
2022/08/11 16:05:12;;;;;;;4.63;1.70;;;;;;;32.75;20.42;96707.25;2110057;28;20518;-66
2022/08/11 16:06:54;;;;;;;6.17;1.70;;;;;;;33.46;19.83;96708.41;2109101;28;20483;-66
2022/08/11 16:07:58;;;;;;;4.13;1.60;;;;;;;33.38;19.89;96717.59;2093055;28;20431;-66
2022/08/11 16:09:05;;;;;;;5.63;1.40;;;;;;;33.43;19.57;96720.50;2109623;28;20433;-66
2022/08/11 16:10:22;;;;;;;4.73;1.63;;;;;;;33.54;19.41;96711.72;2111436;28;20952;-66
2022/08/11 16:11:25;;;;;;;2.43;1.30;;;;;;;32.39;20.21;96720.94;2109876;28;20447;-67
2022/08/11 16:12:30;;;;;;;6.07;1.60;;;;;;;32.51;20.38;96717.63;2111157;28;20423;-67
2022/08/11 16:16:13;;;;;;;6.03;1.27;;;;;;;31.94;20.88;96709.78;2109748;28;20446;-66
2022/08/11 16:17:18;;;;;;;4.80;1.30;;;;;;;32.53;20.51;96720.94;2110801;28;20434;-66
2022/08/11 16:18:24;;;;;;;2.80;1.30;;;;;;;32.65;20.33;96713.06;2110659;28;20425;-67
2022/08/11 16:19:33;;;;;;;2.70;1.70;;;;;;;32.58;20.03;96714.91;2107387;28;20438;-67
2022/08/11 16:20:35;;;;;;;1.60;1.00;;;;;;;31.46;21.27;96712.44;2108950;28;20431;-67
2022/08/11 16:21:39;;;;;;;3.67;1.37;;;;;;;31.61;21.35;96709.63;2109800;28;20622;-67
2022/08/11 16:22:45;;;;;;;1.90;1.30;;;;;;;31.44;21.14;96707.25;2108362;28;20785;-66
2022/08/11 16:24:08;;;;;;;13.40;1.60;;;;;;;32.07;20.96;96709.81;2109940;28;20812;-67
2022/08/11 16:25:33;;;;;;;4.13;1.60;;;;;;;32.43;20.19;96715.94;2111207;28;20420;-66
2022/08/11 16:26:57;;;;;;;9.43;1.57;;;;;;;31.94;20.79;96711.66;2108240;28;20481;-66
2022/08/11 16:28:14;;;;;;;3.63;1.50;;;;;;;31.84;20.91;96706.63;2111287;28;20908;-66
2022/08/11 16:29:18;;;;;;;4.67;1.43;;;;;;;31.89;20.61;96687.94;2101389;28;21122;-66
2022/08/11 16:30:21;;;;;;;2.90;1.60;;;;;;;31.54;21.14;96707.72;2101985;28;20423;-67
2022/08/11 16:31:24;;;;;;;2.03;1.20;;;;;;;30.31;21.99;96708.00;2108391;28;20520;-67
2022/08/11 16:32:26;;;;;;;3.70;1.50;;;;;;;30.46;21.77;96711.47;2109615;28;20916;-66
2022/08/11 16:33:29;;;;;;;13.33;1.80;;;;;;;31.09;21.08;96710.75;2110664;28;20430;-66
2022/08/11 16:39:04;;;;;;;9.80;1.50;;;;;;;30.69;21.56;96698.81;2107231;28;20423;-66
2022/08/11 16:40:08;;;;;;;6.73;1.87;;;;;;;29.88;22.33;96695.31;2112190;28;20890;-66
2022/08/11 16:41:12;;;;;;;3.63;1.43;;;;;;;29.53;22.46;96699.63;2100933;28;20520;-66
2022/08/11 16:47:56;;;;;;;5.67;1.57;;;;;;;31.07;21.71;96687.72;2111316;28;20427;-66
2022/08/11 16:49:45;;;;;;;7.60;2.10;;;;;;;31.43;21.31;96692.91;2110002;28;20453;-66
2022/08/11 16:50:54;;;;;;;3.33;1.40;;;;;;;30.89;21.96;96698.97;2108050;28;20510;-66
2022/08/11 16:51:57;;;;;;;3.03;1.57;;;;;;;30.57;21.83;96696.66;2112367;28;20812;-66
2022/08/11 16:52:58;;;;;;;4.90;1.60;;;;;;;30.41;22.14;96692.34;2110377;28;20463;-66
2022/08/11 16:54:00;;;;;;;5.73;3.33;;;;;;;30.57;22.34;96691.25;2111255;28;20434;-66
2022/08/11 16:55:08;;;;;;;12.33;5.57;;;;;;;30.87;21.71;96699.19;2107875;28;20427;-66
2022/08/11 16:56:15;;;;;;;6.50;3.43;;;;;;;30.91;21.57;96697.75;2108065;28;20763;-66
2022/08/11 16:59:16;;;;;;;11.43;2.10;;;;;;;30.88;22.15;96700.00;2109482;28;20423;-66
2022/08/11 17:00:18;;;;;;;2.73;1.33;;;;;;;30.56;22.01;96700.41;2109708;28;20424;-66
2022/08/11 17:01:23;;;;;;;2.77;1.10;;;;;;;30.62;22.17;96698.78;2111322;28;20450;-66
2022/08/11 17:13:28;;;;;;;2.60;1.30;;;;;;;30.39;22.68;96698.97;2081894;28;20433;-65
2022/08/11 17:14:50;;;;;;;1.93;1.00;;;;;;;30.37;22.52;96684.84;2101679;28;20416;-65
2022/08/11 17:16:07;;;;;;;2.90;1.20;;;;;;;30.05;22.44;96689.72;2108017;28;20419;-66
2022/08/11 17:17:15;;;;;;;3.93;1.20;;;;;;;29.90;22.83;96687.91;2107356;28;20506;-68
2022/08/11 17:19:00;;;;;;;5.13;1.17;;;;;;;28.78;24.18;96695.00;2108512;28;20424;-66
2022/08/11 17:19:57;;;;;;;9.87;1.90;;;;;;;28.55;23.99;96686.13;2100406;28;20438;-66
2022/08/11 17:21:25;;;;;;;5.10;1.80;;;;;;;28.43;24.53;96686.56;2098785;28;20506;-65
2022/08/11 17:23:53;;;;;;;4.37;1.50;;;;;;;28.64;24.58;96672.44;2109002;28;20426;-66
2022/08/11 17:24:57;;;;;;;3.80;1.40;;;;;;;28.25;24.62;96686.03;2108604;28;20931;-66
2022/08/11 17:25:59;;;;;;;2.07;1.30;;;;;;;28.11;24.62;96682.28;2109595;28;20234;-66
2022/08/11 17:27:07;;;;;;;3.97;1.48;;;;;;;28.28;24.54;96677.63;2110116;28;20471;-66
2022/08/11 17:28:11;;;;;;;3.53;1.55;;;;;;;28.40;24.57;96683.41;2110531;28;20260;-65
2022/08/11 17:29:14;;;;;;;1.85;1.33;;;;;;;28.44;24.23;96680.19;2109551;28;20600;-66
2022/08/11 17:30:15;;;;;;;2.17;1.30;;;;;;;28.38;24.42;96680.06;2108122;28;20206;-65
2022/08/11 17:35:34;;;;;;;2.28;1.05;;;;;;;28.21;24.73;96682.88;2110327;28;20692;-67
2022/08/11 17:36:37;;;;;;;6.05;1.70;;;;;;;28.12;24.82;96682.09;2109305;28;20312;-67
2022/08/11 17:37:47;;;;;;;6.55;1.58;;;;;;;28.15;24.77;96676.38;2111937;28;20239;-67
2022/08/11 17:38:49;;;;;;;17.02;2.25;;;;;;;28.06;24.69;96685.50;2111376;28;20198;-67
2022/08/11 17:39:52;;;;;;;2.15;1.27;;;;;;;28.02;24.82;96682.31;2109070;28;20865;-67
2022/08/11 17:49:19;;;;;;;8.70;1.63;;;;;;;27.68;25.33;96675.47;2107872;28;20201;-66
2022/08/11 17:50:21;;;;;;;4.47;1.83;;;;;;;27.77;25.23;96678.09;2108714;28;20202;-67
2022/08/11 17:59:51;;;;;;;9.88;1.55;;;;;;;27.36;25.94;96676.41;2108993;28;20191;-67
2022/08/11 18:00:54;;;;;;;4.40;1.40;;;;;;;27.43;25.94;96684.63;2109305;28;20294;-66
2022/08/11 18:03:31;;;;;;;5.32;1.52;;;;;;;27.32;25.70;96683.13;2111430;28;20309;-67
2022/08/11 18:04:33;;;;;;;6.00;1.58;;;;;;;27.15;26.14;96672.47;2107535;28;20194;-66
2022/08/11 18:05:36;;;;;;;7.18;1.30;;;;;;;27.16;25.88;96684.00;2109585;28;20640;-67
2022/08/11 18:06:39;;;;;;;27.35;18.38;;;;;;;27.13;26.25;96687.88;2108456;28;20214;-67
